Time;durP1;ratioP1;P1;durP2;ratioP2;P2;SDS_P1;SDS_P2;PMS_P1;PMS_P2;Temp;Humidity;BMP_temperature;BMP_pressure;BME280_temperature;BME280_humidity;BME280_pressure;Samples;Min_cycle;Max_cycle;Signal;HPM_P1;HPM_P2
2022/11/17 00:01:22;;;;;;;8.13;3.70;;;;;;;9.16;100.00;98725.94;5053336;28;20108;-48
2022/11/17 00:03:48;;;;;;;10.27;3.80;;;;;;;9.17;100.00;98723.16;5053096;28;20544;-47
2022/11/17 00:06:14;;;;;;;10.15;3.80;;;;;;;9.18;100.00;98708.94;5042488;28;20055;-48
2022/11/17 00:08:40;;;;;;;9.15;3.90;;;;;;;9.21;100.00;98691.91;5053175;28;20029;-46
2022/11/17 00:11:06;;;;;;;10.10;4.18;;;;;;;9.19;100.00;98705.31;5053151;28;20060;-46
2022/11/17 00:16:17;;;;;;;6.50;3.65;;;;;;;9.21;100.00;98697.19;5047288;28;20051;-48
2022/11/17 00:21:27;;;;;;;9.68;3.90;;;;;;;9.24;100.00;98683.59;5036105;28;20044;-48
2022/11/17 00:23:54;;;;;;;8.57;4.05;;;;;;;9.26;100.00;98676.34;5052171;28;20033;-47
2022/11/17 00:26:21;;;;;;;8.75;4.00;;;;;;;9.24;100.00;98673.00;5053073;28;20493;-47
2022/11/17 00:28:54;;;;;;;7.95;3.53;;;;;;;9.23;100.00;98664.25;5051759;28;20112;-46
2022/11/17 00:34:03;;;;;;;7.15;3.65;;;;;;;9.25;100.00;98651.66;5049884;28;20036;-47
2022/11/17 00:36:30;;;;;;;9.18;3.72;;;;;;;9.26;100.00;98648.03;5052354;28;20017;-48
2022/11/17 00:38:55;;;;;;;5.65;3.33;;;;;;;9.28;100.00;98631.97;5048814;28;20120;-47
2022/11/17 00:41:20;;;;;;;7.40;3.53;;;;;;;9.28;100.00;98623.19;5052195;28;20105;-47
2022/11/17 00:43:46;;;;;;;7.85;3.25;;;;;;;9.26;100.00;98626.00;5052411;28;20017;-47
2022/11/17 00:46:11;;;;;;;6.80;3.20;;;;;;;9.26;100.00;98634.78;5050287;28;20029;-46
2022/11/17 00:48:37;;;;;;;8.65;3.40;;;;;;;9.28;100.00;98623.19;5052600;28;20279;-47
2022/11/17 00:51:03;;;;;;;6.25;3.20;;;;;;;9.29;100.00;98622.19;5051991;28;20067;-47
2022/11/17 00:53:29;;;;;;;6.82;3.58;;;;;;;9.31;100.00;98614.91;5051123;28;20028;-46
2022/11/17 00:55:54;;;;;;;9.48;3.60;;;;;;;9.30;100.00;98618.56;5051243;28;20387;-46
2022/11/17 00:58:19;;;;;;;3.80;3.17;;;;;;;9.34;100.00;98612.78;5049501;28;20116;-47
2022/11/17 01:00:47;;;;;;;7.22;3.15;;;;;;;9.35;100.00;98603.81;5047601;28;20498;-46
2022/11/17 01:03:13;;;;;;;6.97;2.92;;;;;;;9.35;100.00;98611.78;5051862;28;20033;-48
2022/11/17 01:05:38;;;;;;;5.18;3.28;;;;;;;9.36;100.00;98607.28;5039456;28;20151;-48
2022/11/17 01:08:03;;;;;;;5.75;2.75;;;;;;;9.38;100.00;98587.59;5046194;28;20403;-47
2022/11/17 01:10:29;;;;;;;7.47;2.67;;;;;;;9.37;100.00;98601.81;5048221;28;20021;-46
2022/11/17 01:12:54;;;;;;;5.28;2.53;;;;;;;9.41;100.00;98599.69;5046640;28;20049;-47
2022/11/17 01:15:19;;;;;;;3.85;2.50;;;;;;;9.42;100.00;98570.38;5051555;28;20032;-47
2022/11/17 01:17:44;;;;;;;5.07;2.20;;;;;;;9.44;100.00;98570.19;5051756;28;20029;-46
2022/11/17 01:20:10;;;;;;;2.30;1.95;;;;;;;9.47;100.00;98577.00;5045557;28;20021;-46
2022/11/17 01:22:36;;;;;;;4.97;1.90;;;;;;;9.47;100.00;98563.75;5049054;28;20024;-46
2022/11/17 01:25:01;;;;;;;4.32;2.10;;;;;;;9.51;100.00;98555.31;5049516;28;20051;-49
2022/11/17 01:27:26;;;;;;;3.67;1.90;;;;;;;9.54;100.00;98556.78;5048290;28;20021;-46
2022/11/17 01:29:51;;;;;;;3.88;1.95;;;;;;;9.56;100.00;98568.03;5045756;28;20034;-48
2022/11/17 01:32:17;;;;;;;4.03;2.10;;;;;;;9.60;100.00;98569.38;5051800;28;20032;-47
2022/11/17 01:34:42;;;;;;;3.83;1.88;;;;;;;9.59;100.00;98568.56;5035846;28;20029;-47
2022/11/17 01:37:19;;;;;;;3.40;1.90;;;;;;;9.62;100.00;98560.25;5051907;28;20029;-46
2022/11/17 01:39:45;;;;;;;2.63;1.70;;;;;;;9.61;100.00;98561.25;5035542;28;20071;-46
2022/11/17 01:42:15;;;;;;;2.20;1.98;;;;;;;9.61;100.00;98568.38;5051188;28;20463;-47
2022/11/17 01:44:52;;;;;;;4.55;1.80;;;;;;;9.61;100.00;98576.34;5040816;28;20087;-47
2022/11/17 01:47:34;;;;;;;3.95;2.10;;;;;;;9.62;100.00;98567.38;5041259;28;20538;-46
2022/11/17 01:50:08;;;;;;;4.63;2.17;;;;;;;9.63;100.00;98548.66;5044438;28;20037;-46
2022/11/17 01:52:37;;;;;;;4.00;2.30;;;;;;;9.64;100.00;98549.47;5038780;28;20031;-47
2022/11/17 01:55:03;;;;;;;2.47;2.20;;;;;;;9.68;100.00;98539.38;5051587;28;20056;-47
2022/11/17 01:57:34;;;;;;;3.28;2.30;;;;;;;9.69;100.00;98523.31;5051250;28;20494;-46
2022/11/17 02:00:03;;;;;;;4.28;2.13;;;;;;;9.70;100.00;98526.78;5047768;28;20037;-47
2022/11/17 02:02:29;;;;;;;;;;;;;;;9.73;100.00;98558.25;5050396;28;20017;-47
2022/11/17 02:05:20;;;;;;;2.90;2.03;;;;;;;9.69;100.00;98560.44;5050423;28;19962;-46
2022/11/17 02:07:48;;;;;;;2.92;1.83;;;;;;;9.67;100.00;98567.69;5038866;28;20021;-47
2022/11/17 02:10:14;;;;;;;3.20;1.77;;;;;;;9.66;100.00;98547.50;5033019;28;20025;-47
2022/11/17 02:12:40;;;;;;;3.72;2.00;;;;;;;9.67;100.00;98538.53;5046710;28;20067;-46
2022/11/17 02:15:06;;;;;;;2.55;1.90;;;;;;;9.68;100.00;98526.13;5046421;28;20033;-47
2022/11/17 02:17:38;;;;;;;2.38;2.05;;;;;;;9.69;100.00;98510.06;5048738;28;20029;-47
2022/11/17 02:20:20;;;;;;;2.60;1.58;;;;;;;9.73;100.00;98507.91;5046725;28;20068;-46
2022/11/17 02:23:11;;;;;;;3.53;1.83;;;;;;;9.77;100.00;98510.03;5053622;28;20186;-47
2022/11/17 02:26:12;;;;;;;3.25;1.77;;;;;;;9.77;100.00;98499.41;5045626;28;20364;-47
2022/11/17 02:28:46;;;;;;;3.17;1.60;;;;;;;9.82;100.00;98486.50;5048717;28;20033;-50
2022/11/17 02:31:22;;;;;;;1.63;1.00;;;;;;;9.87;100.00;98480.66;5055141;28;20112;-47
2022/11/17 02:33:59;;;;;;;1.77;1.10;;;;;;;9.86;100.00;98475.53;5051151;28;20644;-47
2022/11/17 02:36:53;;;;;;;1.35;1.13;;;;;;;9.88;100.00;98468.25;5054577;28;20090;-46
2022/11/17 02:39:25;;;;;;;2.45;1.45;;;;;;;9.88;100.00;98468.25;5054264;28;20131;-47
2022/11/17 02:42:12;;;;;;;2.80;1.20;;;;;;;9.88;100.00;98462.94;5051945;28;20026;-47
2022/11/17 02:44:48;;;;;;;3.05;1.33;;;;;;;9.90;100.00;98468.91;5045754;28;20550;-47
2022/11/17 02:47:22;;;;;;;1.55;1.20;;;;;;;9.88;100.00;98460.31;5051828;28;20037;-47
2022/11/17 02:49:56;;;;;;;2.95;1.10;;;;;;;9.90;100.00;98448.50;5047988;28;20057;-47
2022/11/17 02:52:22;;;;;;;1.58;0.98;;;;;;;9.89;100.00;98438.94;5054436;28;20024;-47
2022/11/17 02:54:47;;;;;;;1.85;1.20;;;;;;;9.90;100.00;98443.22;5054383;28;20029;-48
2022/11/17 02:57:45;;;;;;;1.63;1.00;;;;;;;9.92;100.00;98441.19;5051173;28;20390;-47
2022/11/17 03:00:17;;;;;;;2.67;1.10;;;;;;;9.91;100.00;98446.69;5051213;28;20494;-47
2022/11/17 03:03:07;;;;;;;2.20;0.98;;;;;;;9.90;100.00;98443.22;5054513;28;20086;-47
2022/11/17 03:05:47;;;;;;;1.52;1.00;;;;;;;9.90;100.00;98453.00;5045591;28;20043;-47
2022/11/17 03:08:20;;;;;;;3.22;1.15;;;;;;;9.86;100.00;98436.59;5052629;28;20387;-48
2022/11/17 03:10:51;;;;;;;2.03;1.27;;;;;;;9.83;100.00;98431.66;5054320;28;20040;-47
2022/11/17 03:13:24;;;;;;;1.73;1.10;;;;;;;9.82;100.00;98429.97;5053498;28;20056;-47
2022/11/17 03:16:03;;;;;;;1.30;0.90;;;;;;;9.79;100.00;98423.22;5051375;28;20033;-47
2022/11/17 03:18:37;;;;;;;2.63;1.20;;;;;;;9.79;100.00;98409.97;5054235;28;20044;-48
2022/11/17 03:21:05;;;;;;;2.50;1.02;;;;;;;9.79;100.00;98414.41;5053692;28;20035;-47
2022/11/17 03:23:48;;;;;;;1.83;0.93;;;;;;;9.77;100.00;98413.78;5053582;28;20021;-47
2022/11/17 03:26:22;;;;;;;0.80;0.80;;;;;;;9.75;100.00;98405.16;5053495;28;20028;-48
2022/11/17 03:28:48;;;;;;;0.82;0.60;;;;;;;9.75;100.00;98402.53;5053226;28;20037;-47
2022/11/17 03:31:15;;;;;;;2.45;0.88;;;;;;;9.73;100.00;98400.03;5052259;28;20471;-47
2022/11/17 03:33:44;;;;;;;1.63;0.90;;;;;;;9.71;100.00;98388.78;5048327;28;20036;-47
2022/11/17 03:36:13;;;;;;;3.05;0.90;;;;;;;9.71;100.00;98386.13;5053689;28;20474;-47
2022/11/17 03:38:45;;;;;;;3.03;0.80;;;;;;;9.71;100.00;98385.28;5053481;28;20025;-47
2022/11/17 03:41:13;;;;;;;3.00;1.00;;;;;;;9.69;100.00;98382.84;5045292;28;20480;-48
2022/11/17 03:43:41;;;;;;;1.90;0.90;;;;;;;9.71;100.00;98378.19;5036794;28;20025;-48
2022/11/17 03:46:12;;;;;;;3.10;0.93;;;;;;;9.75;100.00;98379.47;5054154;28;20044;-47
2022/11/17 03:48:47;;;;;;;1.15;0.80;;;;;;;9.71;100.00;98367.59;5053428;28;20036;-47
2022/11/17 03:51:21;;;;;;;1.70;0.88;;;;;;;9.72;100.00;98377.16;5052928;28;20029;-50
2022/11/17 03:53:47;;;;;;;2.80;0.90;;;;;;;9.72;100.00;98361.25;5052993;28;20078;-48
2022/11/17 03:56:38;;;;;;;2.50;1.17;;;;;;;9.77;100.00;98355.44;5052869;28;20025;-47
2022/11/17 03:59:12;;;;;;;0.70;0.63;;;;;;;9.81;100.00;98370.03;5053598;28;20061;-48
2022/11/17 04:01:38;;;;;;;1.98;0.88;;;;;;;9.80;100.00;98363.06;5040780;28;20034;-47
2022/11/17 04:04:03;;;;;;;2.15;1.05;;;;;;;9.83;100.00;98354.75;5053327;28;20535;-47
2022/11/17 04:06:28;;;;;;;2.70;1.00;;;;;;;9.87;100.00;98345.44;5052698;28;20036;-47
2022/11/17 04:08:54;;;;;;;2.15;0.95;;;;;;;9.87;100.00;98363.19;5053361;28;20025;-48
2022/11/17 04:16:47;;;;;;;1.75;1.00;;;;;;;9.89;100.00;98355.88;5053330;28;20040;-48
2022/11/17 04:19:12;;;;;;;3.20;0.90;;;;;;;9.90;100.00;98349.59;5048452;28;20021;-47
2022/11/17 04:21:37;;;;;;;2.30;1.10;;;;;;;9.94;100.00;98353.53;5052935;28;20107;-47
2022/11/17 04:24:03;;;;;;;5.03;1.02;;;;;;;9.95;100.00;98366.63;5052911;28;20108;-47
2022/11/17 04:29:12;;;;;;;3.08;1.20;;;;;;;9.93;100.00;98367.81;5052902;28;20090;-47
2022/11/17 04:31:37;;;;;;;6.72;1.33;;;;;;;9.90;100.00;98376.91;5052764;28;20417;-46
2022/11/17 04:34:04;;;;;;;1.58;0.88;;;;;;;9.87;100.00;98360.53;5052573;28;20021;-48
2022/11/17 04:36:35;;;;;;;2.38;1.10;;;;;;;9.84;100.00;98353.75;5046199;28;20167;-48
2022/11/17 04:39:01;;;;;;;3.13;1.00;;;;;;;9.79;100.00;98338.38;5052427;28;20418;-48
2022/11/17 04:44:15;;;;;;;5.90;1.08;;;;;;;9.77;100.00;98316.50;5052659;28;20055;-48
2022/11/17 04:46:43;;;;;;;3.63;1.30;;;;;;;9.74;100.00;98322.19;5051288;28;20040;-48
2022/11/17 04:49:08;;;;;;;3.03;1.10;;;;;;;9.71;100.00;98308.44;5052075;28;20058;-49
2022/11/17 04:51:34;;;;;;;3.13;1.35;;;;;;;9.70;100.00;98304.97;5051498;28;20032;-48
2022/11/17 04:54:01;;;;;;;4.47;1.40;;;;;;;9.69;100.00;98307.78;5042270;28;20040;-49
2022/11/17 04:56:28;;;;;;;4.03;1.80;;;;;;;9.68;100.00;98311.44;5052000;28;20040;-48
2022/11/17 04:58:53;;;;;;;3.85;1.58;;;;;;;9.66;100.00;98308.13;5050665;28;20025;-49
2022/11/17 05:01:21;;;;;;;4.22;1.58;;;;;;;9.65;100.00;98303.84;5047719;28;20502;-48
2022/11/17 05:03:51;;;;;;;3.00;1.35;;;;;;;9.63;100.00;98304.00;5052537;28;20399;-49
2022/11/17 05:06:31;;;;;;;5.65;1.60;;;;;;;9.63;100.00;98309.31;5052029;28;20493;-49
2022/11/17 05:08:58;;;;;;;6.57;1.73;;;;;;;9.63;100.00;98310.13;5047045;28;20499;-49
2022/11/17 05:14:11;;;;;;;7.15;1.75;;;;;;;9.65;100.00;98312.59;5045676;28;20095;-48
2022/11/17 05:19:23;;;;;;;5.97;1.80;;;;;;;9.67;100.00;98357.50;5048084;28;20593;-48
2022/11/17 05:21:48;;;;;;;9.60;1.80;;;;;;;9.67;100.00;98376.03;5047288;28;20037;-49
2022/11/17 05:24:14;;;;;;;5.50;1.60;;;;;;;9.67;100.00;98352.19;5048053;28;20055;-49
2022/11/17 05:26:42;;;;;;;7.80;1.50;;;;;;;9.66;100.00;98356.69;5049679;28;20125;-49
2022/11/17 05:29:09;;;;;;;6.78;1.70;;;;;;;9.67;100.00;98357.50;5051882;28;20936;-49
2022/11/17 05:31:35;;;;;;;4.18;1.60;;;;;;;9.68;100.00;98354.69;5051752;28;20074;-49
2022/11/17 05:34:02;;;;;;;7.03;1.80;;;;;;;9.70;100.00;98352.66;5044273;28;20033;-48
2022/11/17 05:36:28;;;;;;;4.97;1.80;;;;;;;9.71;100.00;98362.28;5051396;28;20032;-49
2022/11/17 05:38:53;;;;;;;6.25;2.15;;;;;;;9.70;100.00;98365.91;5051712;28;20021;-49
2022/11/17 05:41:20;;;;;;;6.78;1.70;;;;;;;9.70;100.00;98357.97;5048989;28;20051;-46
2022/11/17 05:43:45;;;;;;;10.00;2.00;;;;;;;9.70;100.00;98365.91;5035548;28;20523;-47
2022/11/17 05:46:11;;;;;;;8.68;1.70;;;;;;;9.71;100.00;98372.03;5051748;28;20104;-48
2022/11/17 05:48:37;;;;;;;7.38;1.98;;;;;;;9.71;100.00;98369.38;5049322;28;20029;-48
2022/11/17 05:51:04;;;;;;;6.10;2.03;;;;;;;9.71;100.00;98370.25;5042046;28;20037;-49
2022/11/17 05:53:30;;;;;;;7.90;2.15;;;;;;;9.71;100.00;98370.25;5054946;28;20029;-47
2022/11/17 05:56:42;;;;;;;5.50;2.00;;;;;;;9.73;100.00;98375.38;5050080;28;20024;-47
2022/11/17 05:59:11;;;;;;;7.95;1.75;;;;;;;9.71;100.00;98375.53;5050801;28;20036;-47
2022/11/17 06:01:42;;;;;;;8.05;1.95;;;;;;;9.69;100.00;98376.69;5053641;28;20028;-49
2022/11/17 06:04:08;;;;;;;7.18;1.80;;;;;;;9.70;100.00;98375.72;5046704;28;20047;-47
2022/11/17 06:06:35;;;;;;;10.80;2.33;;;;;;;9.69;100.00;98384.66;5052488;28;20033;-48
2022/11/17 06:09:00;;;;;;;9.75;2.00;;;;;;;9.70;100.00;98375.72;5047180;28;20044;-48
2022/11/17 06:11:26;;;;;;;11.32;2.30;;;;;;;9.69;100.00;98382.84;5054818;28;20025;-47
2022/11/17 06:13:51;;;;;;;14.68;2.40;;;;;;;9.71;100.00;98386.13;5052953;28;20053;-47
2022/11/17 06:16:21;;;;;;;7.13;1.98;;;;;;;9.71;100.00;98395.91;5055305;28;20036;-48
2022/11/17 06:18:49;;;;;;;;;;;;;;;9.74;100.00;98393.75;5049847;28;20033;-50
2022/11/17 06:21:15;;;;;;;8.60;1.90;;;;;;;9.69;100.00;98403.19;5053460;28;20263;-49
2022/11/17 06:23:43;;;;;;;12.50;2.20;;;;;;;9.67;100.00;98399.91;5044694;28;20032;-48
2022/11/17 06:26:09;;;;;;;7.43;1.70;;;;;;;9.67;100.00;98400.72;5053045;28;20056;-48
2022/11/17 06:28:37;;;;;;;6.45;2.05;;;;;;;9.65;100.00;98407.22;5051110;28;20053;-48
2022/11/17 06:31:03;;;;;;;10.98;2.22;;;;;;;9.65;100.00;98412.50;5053109;28;20544;-49
2022/11/17 06:33:30;;;;;;;5.28;1.55;;;;;;;9.61;100.00;98407.53;5055014;28;20107;-48
2022/11/17 06:35:59;;;;;;;7.32;1.60;;;;;;;9.59;100.00;98414.84;5052659;28;20025;-48
2022/11/17 06:38:25;;;;;;;5.80;1.45;;;;;;;9.57;100.00;98414.16;5049033;28;20023;-48
2022/11/17 06:40:50;;;;;;;5.07;1.85;;;;;;;9.54;100.00;98411.88;5054454;28;20021;-49
2022/11/17 06:43:16;;;;;;;5.43;1.45;;;;;;;9.52;100.00;98416.50;5041906;28;20155;-48
2022/11/17 06:45:44;;;;;;;3.63;1.17;;;;;;;9.49;100.00;98423.97;5053715;28;20091;-48
2022/11/17 06:48:11;;;;;;;4.18;1.23;;;;;;;9.46;100.00;98417.22;5047430;28;20075;-52
2022/11/17 06:50:36;;;;;;;2.95;1.17;;;;;;;9.42;100.00;98429.94;5054442;28;20032;-50
2022/11/17 06:53:04;;;;;;;3.92;1.23;;;;;;;9.43;100.00;98428.97;5048578;28;20025;-48
2022/11/17 06:55:30;;;;;;;6.40;1.77;;;;;;;9.40;100.00;98433.78;5052970;28;20043;-48
2022/11/17 06:58:10;;;;;;;5.72;1.65;;;;;;;9.38;100.00;98438.41;5054497;28;20052;-49
2022/11/17 07:00:36;;;;;;;4.88;1.40;;;;;;;9.35;100.00;98431.63;5048822;28;20390;-48
2022/11/17 07:03:04;;;;;;;4.63;1.73;;;;;;;9.34;100.00;98445.03;5050521;28;20029;-48
2022/11/17 07:05:30;;;;;;;6.90;1.77;;;;;;;9.32;100.00;98444.38;5046904;28;20060;-48
2022/11/17 07:07:57;;;;;;;3.53;1.25;;;;;;;9.29;100.00;98448.19;5053710;28;20107;-50
2022/11/17 07:10:23;;;;;;;3.70;1.63;;;;;;;9.29;100.00;98447.38;5046995;28;20026;-49
2022/11/17 07:12:48;;;;;;;5.72;1.67;;;;;;;9.26;100.00;98452.00;5049736;28;20516;-48
2022/11/17 07:15:13;;;;;;;6.43;1.50;;;;;;;9.24;100.00;98454.00;5054265;28;20040;-49
2022/11/17 07:17:39;;;;;;;5.07;1.70;;;;;;;9.24;100.00;98455.81;5035962;28;20035;-48
2022/11/17 07:20:04;;;;;;;5.00;1.60;;;;;;;9.22;100.00;98460.47;5050755;28;20032;-48
2022/11/17 07:22:30;;;;;;;4.20;1.50;;;;;;;9.22;100.00;98460.47;5050836;28;20041;-49
2022/11/17 07:24:55;;;;;;;4.88;1.58;;;;;;;9.19;100.00;98471.38;5037855;28;20135;-49
2022/11/17 07:27:20;;;;;;;4.80;1.70;;;;;;;9.17;100.00;98462.78;5038069;28;20447;-48
2022/11/17 07:29:45;;;;;;;3.22;1.20;;;;;;;9.17;100.00;98468.06;5036128;28;20040;-48
2022/11/17 07:32:12;;;;;;;3.08;1.35;;;;;;;9.17;100.00;98470.72;5037456;28;20483;-48
2022/11/17 07:34:38;;;;;;;6.63;1.70;;;;;;;9.13;100.00;98475.53;5041211;28;20024;-49
2022/11/17 07:37:03;;;;;;;4.45;1.27;;;;;;;9.12;100.00;98473.88;5034871;28;20030;-48
2022/11/17 07:39:29;;;;;;;4.15;1.15;;;;;;;9.12;100.00;98475.69;5041801;28;20036;-48
2022/11/17 07:41:54;;;;;;;5.15;1.67;;;;;;;9.10;100.00;98477.69;5038790;28;20406;-48
2022/11/17 07:44:19;;;;;;;5.25;1.20;;;;;;;9.07;100.00;98479.66;5037305;28;20029;-48
2022/11/17 07:46:44;;;;;;;4.43;1.50;;;;;;;9.06;100.00;98477.19;5037767;28;20111;-48
2022/11/17 07:49:10;;;;;;;4.43;1.23;;;;;;;9.05;100.00;98492.25;5044368;28;20083;-48
2022/11/17 07:51:35;;;;;;;4.97;1.23;;;;;;;9.04;100.00;98485.31;5035416;28;20045;-49
2022/11/17 07:54:00;;;;;;;5.57;1.52;;;;;;;9.04;100.00;98493.25;5037620;28;20348;-48
2022/11/17 07:56:26;;;;;;;3.50;1.40;;;;;;;9.05;100.00;98489.59;5038593;28;20049;-48
2022/11/17 07:58:52;;;;;;;3.83;1.65;;;;;;;9.02;100.00;98500.50;5035767;28;20030;-48
2022/11/17 08:01:17;;;;;;;5.45;1.27;;;;;;;9.05;100.00;98504.66;5035239;28;20030;-49
2022/11/17 08:03:43;;;;;;;3.95;1.27;;;;;;;9.05;100.00;98507.31;5036249;28;20037;-49
2022/11/17 08:06:08;;;;;;;3.20;1.40;;;;;;;9.05;100.00;98505.47;5050859;28;20037;-49
2022/11/17 08:08:34;;;;;;;3.85;1.50;;;;;;;9.03;100.00;98510.13;5039095;28;20102;-48
2022/11/17 08:11:07;;;;;;;5.35;1.92;;;;;;;9.00;100.00;98523.69;5041660;28;20475;-47
2022/11/17 08:13:33;;;;;;;4.13;1.00;;;;;;;9.04;100.00;98518.88;5039869;28;20499;-48
2022/11/17 08:15:58;;;;;;;5.72;1.30;;;;;;;9.04;100.00;98530.31;5034221;28;20036;-47
2022/11/17 08:18:24;;;;;;;4.03;1.10;;;;;;;9.01;100.00;98533.28;5046654;28;20499;-49
2022/11/17 08:20:50;;;;;;;3.03;1.10;;;;;;;9.00;100.00;98534.28;5050916;28;20125;-50
2022/11/17 08:23:17;;;;;;;6.20;1.25;;;;;;;8.99;100.00;98535.28;5047183;28;20051;-47
2022/11/17 08:25:42;;;;;;;4.13;1.30;;;;;;;8.99;100.00;98539.72;5047992;28;20033;-48
2022/11/17 08:28:07;;;;;;;6.82;1.30;;;;;;;8.98;100.00;98540.75;5043734;28;20041;-48
2022/11/17 08:30:34;;;;;;;4.10;1.23;;;;;;;8.98;100.00;98538.91;5036620;28;20056;-49
2022/11/17 08:33:00;;;;;;;3.85;1.10;;;;;;;8.96;100.00;98538.25;5041467;28;20099;-48
2022/11/17 08:35:25;;;;;;;2.92;1.17;;;;;;;8.95;100.00;98544.53;5047715;28;20033;-48
2022/11/17 08:37:52;;;;;;;4.05;1.50;;;;;;;8.92;100.00;98546.69;5044537;28;20077;-48
2022/11/17 08:40:18;;;;;;;4.28;1.35;;;;;;;8.93;100.00;98545.72;5037659;28;20037;-51
2022/11/17 08:42:44;;;;;;;2.67;1.10;;;;;;;8.90;100.00;98552.13;5039427;28;20037;-49
2022/11/17 08:45:10;;;;;;;6.40;1.52;;;;;;;8.89;100.00;98539.88;5047080;28;20048;-48
2022/11/17 08:47:36;;;;;;;3.10;1.30;;;;;;;8.87;100.00;98550.63;5049613;28;20048;-48
2022/11/17 08:50:03;;;;;;;5.00;1.30;;;;;;;8.86;100.00;98549.00;5043526;28;20056;-51
2022/11/17 08:52:28;;;;;;;5.32;1.30;;;;;;;8.87;100.00;98558.56;5050053;28;20387;-50
2022/11/17 08:54:54;;;;;;;5.95;1.52;;;;;;;8.86;100.00;98558.75;5043298;28;20033;-49
2022/11/17 08:57:20;;;;;;;5.47;1.55;;;;;;;8.85;100.00;98560.56;5031973;28;20061;-49
2022/11/17 08:59:46;;;;;;;4.15;1.30;;;;;;;8.86;100.00;98569.34;5034531;28;20025;-49
2022/11/17 09:02:12;;;;;;;3.20;1.85;;;;;;;8.86;100.00;98572.00;5038706;28;20068;-50
2022/11/17 09:04:37;;;;;;;5.50;1.20;;;;;;;8.87;100.00;98563.06;5036620;28;20033;-49
2022/11/17 09:07:02;;;;;;;2.97;1.30;;;;;;;8.88;100.00;98573.47;5038611;28;20033;-50
2022/11/17 09:09:30;;;;;;;6.13;1.40;;;;;;;8.87;100.00;98578.94;5042358;28;20395;-48
2022/11/17 09:11:56;;;;;;;3.78;1.42;;;;;;;8.87;100.00;98584.22;5050925;28;20029;-48
2022/11/17 09:14:21;;;;;;;3.13;1.30;;;;;;;8.88;100.00;98586.72;5047177;28;20045;-51
2022/11/17 09:16:46;;;;;;;4.32;1.30;;;;;;;8.91;100.00;98592.66;5050273;28;20064;-47
2022/11/17 09:19:12;;;;;;;4.25;1.48;;;;;;;8.87;100.00;98585.03;5045083;28;20114;-47
2022/11/17 09:21:37;;;;;;;2.17;1.10;;;;;;;8.88;100.00;98591.19;5041110;28;20028;-49
2022/11/17 09:24:02;;;;;;;10.32;1.50;;;;;;;8.87;100.00;98592.16;5037290;28;20041;-48
2022/11/17 09:26:28;;;;;;;5.70;1.13;;;;;;;8.86;100.00;98588.69;5044905;28;20033;-48
2022/11/17 09:28:53;;;;;;;6.68;1.20;;;;;;;8.87;100.00;98598.28;5049316;28;20036;-48
2022/11/17 09:31:20;;;;;;;4.32;1.40;;;;;;;8.86;100.00;98596.66;5050142;28;20060;-48
2022/11/17 09:33:46;;;;;;;2.92;1.30;;;;;;;8.88;100.00;98599.94;5045183;28;20049;-47
2022/11/17 09:36:13;;;;;;;4.97;1.40;;;;;;;8.89;100.00;98596.31;5051358;28;20075;-49
2022/11/17 09:38:39;;;;;;;5.35;1.20;;;;;;;8.92;100.00;98604.94;5046992;28;20028;-49
2022/11/17 09:41:19;;;;;;;3.10;1.17;;;;;;;8.95;100.00;98600.13;5046934;28;20066;-49
2022/11/17 09:43:53;;;;;;;3.15;1.05;;;;;;;8.99;100.00;98609.41;5035309;28;20025;-47
2022/11/17 09:46:30;;;;;;;5.13;1.10;;;;;;;9.02;100.00;98605.59;5046997;28;20029;-49
2022/11/17 09:49:01;;;;;;;7.07;1.65;;;;;;;9.07;100.00;98614.72;5051325;28;20128;-48
2022/11/17 09:51:31;;;;;;;4.40;1.27;;;;;;;9.08;100.00;98613.72;5035714;28;20037;-48
2022/11/17 09:54:06;;;;;;;4.97;1.10;;;;;;;9.13;100.00;98617.72;5044966;28;20029;-49
2022/11/17 09:56:32;;;;;;;1.58;0.90;;;;;;;9.14;100.00;98612.22;5034079;28;20057;-49
2022/11/17 09:59:03;;;;;;;3.95;1.38;;;;;;;9.16;100.00;98620.00;5028997;28;20129;-49
2022/11/17 10:01:29;;;;;;;5.50;1.65;;;;;;;9.18;100.00;98629.47;5034988;28;20025;-48
2022/11/17 10:04:00;;;;;;;4.75;1.30;;;;;;;9.19;100.00;98636.44;5029653;28;20439;-49
2022/11/17 10:06:28;;;;;;;2.85;1.40;;;;;;;9.23;100.00;98631.63;5029998;28;20035;-49
2022/11/17 10:09:32;;;;;;;6.35;1.42;;;;;;;9.28;100.00;98647.88;5030127;28;20124;-48
2022/11/17 10:12:22;;;;;;;4.75;1.23;;;;;;;9.32;100.00;98640.41;5032333;28;20029;-48
2022/11/17 10:14:48;;;;;;;3.08;1.23;;;;;;;9.34;100.00;98643.72;5030216;28;20052;-49
2022/11/17 10:17:13;;;;;;;7.45;1.45;;;;;;;9.39;100.00;98654.66;5032054;28;20037;-48
2022/11/17 10:19:40;;;;;;;4.53;1.20;;;;;;;9.42;100.00;98662.28;5034779;28;20022;-48
2022/11/17 10:22:05;;;;;;;6.03;1.42;;;;;;;9.48;100.00;98660.81;5035661;28;20324;-48
2022/11/17 10:24:33;;;;;;;5.70;1.40;;;;;;;9.53;100.00;98658.50;5030214;28;20427;-49
2022/11/17 10:27:01;;;;;;;3.28;1.05;;;;;;;9.57;100.00;98655.31;5032432;28;20323;-49
2022/11/17 10:29:26;;;;;;;4.35;1.55;;;;;;;9.62;100.00;98653.00;5034498;28;20115;-47
2022/11/17 10:31:51;;;;;;;6.68;1.25;;;;;;;9.68;100.00;98662.13;5046025;28;20125;-49
2022/11/17 10:34:38;;;;;;;8.70;1.35;;;;;;;9.75;100.00;98662.31;5034230;28;20018;-48
2022/11/17 10:37:12;;;;;;;4.30;1.23;;;;;;;9.80;100.00;98673.25;5030863;28;20747;-48
2022/11/17 10:39:41;;;;;;;2.72;0.90;;;;;;;9.85;100.00;98670.91;5035831;28;20128;-48
2022/11/17 10:42:21;;;;;;;3.50;1.20;;;;;;;9.90;100.00;98673.88;5037934;28;20451;-48
2022/11/17 10:44:51;;;;;;;3.13;1.15;;;;;;;9.92;100.00;98679.03;5036887;28;20437;-49
2022/11/17 10:47:35;;;;;;;4.25;1.20;;;;;;;9.96;99.90;98693.63;5034759;28;20033;-50
2022/11/17 10:50:20;;;;;;;2.30;1.05;;;;;;;9.97;100.00;98687.31;5036011;28;20029;-52
2022/11/17 10:52:47;;;;;;;2.90;1.20;;;;;;;9.96;99.94;98683.03;5038432;28;20543;-50
2022/11/17 10:55:20;;;;;;;4.97;1.30;;;;;;;9.97;99.36;98685.47;5038487;28;20033;-48
2022/11/17 10:57:53;;;;;;;5.40;1.50;;;;;;;9.97;99.68;98684.66;5033849;28;20041;-47
2022/11/17 11:00:23;;;;;;;6.65;1.40;;;;;;;9.96;98.48;98694.44;5034926;28;20036;-49
2022/11/17 11:03:21;;;;;;;6.22;1.20;;;;;;;9.98;99.54;98683.69;5046511;28;20025;-49
2022/11/17 11:05:57;;;;;;;5.13;1.25;;;;;;;9.97;99.96;98700.56;5043523;28;20045;-49
2022/11/17 11:08:31;;;;;;;4.72;1.23;;;;;;;9.96;99.72;98696.28;5037657;28;20025;-48
2022/11/17 11:10:58;;;;;;;4.95;1.35;;;;;;;9.93;99.76;98692.13;5035398;28;20033;-48
2022/11/17 11:13:44;;;;;;;3.00;1.10;;;;;;;9.96;98.97;98693.63;5034646;28;20512;-48
2022/11/17 11:16:10;;;;;;;7.20;1.40;;;;;;;9.94;100.00;98703.56;5040425;28;20076;-49
2022/11/17 11:18:37;;;;;;;5.25;1.30;;;;;;;9.92;100.00;98698.41;5040092;28;20252;-49
2022/11/17 11:21:16;;;;;;;4.82;1.58;;;;;;;9.91;100.00;98699.41;5035656;28;20040;-50
2022/11/17 11:23:53;;;;;;;4.13;1.17;;;;;;;9.91;99.53;98703.88;5035250;28;20049;-50
2022/11/17 11:26:40;;;;;;;4.97;1.55;;;;;;;9.91;99.72;98702.06;5041373;28;20026;-48
2022/11/17 11:29:30;;;;;;;6.70;2.05;;;;;;;9.91;99.24;98704.72;5049599;28;20466;-49
2022/11/17 11:32:19;;;;;;;5.38;1.30;;;;;;;9.94;98.81;98712.34;5035692;28;20469;-50
2022/11/17 11:35:27;;;;;;;4.43;1.77;;;;;;;9.94;99.28;98715.00;5043777;28;20029;-49
2022/11/17 11:38:01;;;;;;;8.43;1.65;;;;;;;9.91;98.51;98715.34;5044765;28;20509;-49
2022/11/17 11:40:34;;;;;;;4.10;1.10;;;;;;;9.91;98.39;98731.25;5047177;28;20403;-48
2022/11/17 11:43:26;;;;;;;3.25;1.30;;;;;;;9.92;98.48;98714.31;5049178;28;20033;-50
2022/11/17 11:46:35;;;;;;;9.20;1.83;;;;;;;9.93;98.60;98728.44;5049570;28;20041;-47
2022/11/17 11:49:12;;;;;;;3.30;1.33;;;;;;;9.93;97.69;98741.69;5050382;28;20025;-51
2022/11/17 11:51:38;;;;;;;5.13;1.30;;;;;;;9.93;99.57;98742.50;5048622;28;20064;-49
2022/11/17 11:54:19;;;;;;;3.55;1.42;;;;;;;9.96;97.88;98738.72;5040061;28;20482;-50
2022/11/17 11:56:46;;;;;;;5.45;1.45;;;;;;;9.97;97.20;98745.66;5048110;28;20053;-49
2022/11/17 11:59:18;;;;;;;4.35;1.30;;;;;;;9.97;96.62;98748.31;5036441;28;20033;-48
2022/11/17 12:01:51;;;;;;;4.57;1.38;;;;;;;9.98;95.82;98747.31;5044605;28;20045;-49
2022/11/17 12:04:29;;;;;;;5.18;1.10;;;;;;;9.99;95.90;98741.84;5047768;28;20471;-50
2022/11/17 12:07:00;;;;;;;5.72;1.25;;;;;;;9.99;94.88;98744.50;5047519;28;20337;-49
2022/11/17 12:09:40;;;;;;;3.20;1.25;;;;;;;10.00;95.13;98746.16;5047289;28;20120;-52
2022/11/17 12:12:14;;;;;;;6.22;2.10;;;;;;;10.00;95.75;98748.78;5041132;28;20088;-48